Terminal Aerodrome Forecast
Issued by NWS Columbia, SC

Home | Current Version | Previous Version | Text Only | Print | Product List | Glossary On
Versions: 1 2 3 4 5 6 7 8 9 10 11 12 13 14 15 16 17 18 19 20 21 22 23 24 25 26 27 28 29 30 31 32 33 34 35 36 37 38 39 40 41 42 43 44 45 46 47
000
FTAK31 PAJN 281100
TAFAGS
TAF
PAGS 281135Z 2812/0112 00000KT P6SM BKN150
     FM281800 VRB03KT P6SM BKN050 OVC100
     FM010000 VRB03KT P6SM -RA OVC050
     FM010500 12005KT 6SM -RA BR SCT020 OVC040
     FM011000 12008KT 4SM -SN BR BKN012 OVC025
      AMD LTD TO CLD VIS AND WIND=

USA.gov is the U.S. government's official web portal to all federal, state and local government web resources and services.